createdAt,value
2019-02-04T00:00:02.763Z,17.10
2019-02-04T00:01:02.776Z,17.20
2019-02-04T00:02:02.775Z,21.00
2019-02-04T00:03:02.758Z,16.20
2019-02-04T00:04:02.756Z,17.70
2019-02-04T00:05:02.770Z,16.60
2019-02-04T00:06:02.730Z,18.50
2019-02-04T00:07:02.785Z,19.70
2019-02-04T00:08:02.716Z,17.60
2019-02-04T00:09:02.725Z,18.90
2019-02-04T00:11:03.099Z,18.50
2019-02-04T00:12:02.700Z,18.70
2019-02-04T00:13:03.191Z,15.30
2019-02-04T00:14:02.667Z,15.60
2019-02-04T00:15:02.868Z,16.20
2019-02-04T00:16:02.649Z,15.50
2019-02-04T00:17:02.634Z,16.00
2019-02-04T00:18:02.672Z,16.00
2019-02-04T00:19:03.050Z,17.70
2019-02-04T00:21:02.643Z,17.60
2019-02-04T00:22:02.598Z,18.20
2019-02-04T00:23:02.625Z,17.90
2019-02-04T00:24:02.982Z,18.30
2019-02-04T00:25:02.799Z,17.80
2019-02-04T00:26:02.922Z,15.80
2019-02-04T00:27:02.591Z,17.60
2019-02-04T00:28:02.569Z,17.30
2019-02-04T00:29:02.560Z,18.30
2019-02-04T00:30:02.538Z,16.60
2019-02-04T00:31:05.025Z,16.90
2019-02-04T00:32:02.552Z,17.30
2019-02-04T00:33:02.544Z,17.20
2019-02-04T00:34:02.727Z,17.40
2019-02-04T00:35:02.516Z,16.10
2019-02-04T00:36:02.502Z,16.20
2019-02-04T00:37:02.903Z,17.60
2019-02-04T00:38:02.486Z,21.20
2019-02-04T00:39:02.704Z,19.90
2019-02-04T00:40:02.672Z,18.00
2019-02-04T00:41:02.769Z,18.50
2019-02-04T00:42:02.456Z,17.50
2019-02-04T00:43:02.466Z,18.30
2019-02-04T00:44:02.850Z,19.90
2019-02-04T00:45:02.851Z,18.10
2019-02-04T00:46:02.625Z,21.90
2019-02-04T00:47:02.420Z,19.90
2019-02-04T00:48:02.392Z,20.10
2019-02-04T00:49:02.414Z,20.70
2019-02-04T00:50:02.401Z,17.40
2019-02-04T00:51:02.408Z,18.40
2019-02-04T00:52:02.374Z,20.00
2019-02-04T00:53:02.374Z,17.40
2019-02-04T00:54:02.360Z,18.70
2019-02-04T00:55:02.359Z,16.80
2019-02-04T00:56:02.753Z,16.60
2019-02-04T00:57:02.338Z,16.20
2019-02-04T00:58:02.360Z,17.40
2019-02-04T00:59:02.316Z,18.40
2019-02-04T01:00:02.339Z,18.60
2019-02-04T01:01:02.515Z,21.20
2019-02-04T01:04:02.708Z,18.60
2019-02-04T01:05:02.690Z,16.10
2019-02-04T01:06:02.465Z,17.90
2019-02-04T01:07:02.270Z,20.40
2019-02-04T01:08:02.438Z,18.90
2019-02-04T01:09:02.431Z,20.40
2019-02-04T01:10:02.645Z,19.60
2019-02-04T01:11:02.464Z,22.30
2019-02-04T01:12:02.237Z,21.20
2019-02-04T01:14:02.209Z,20.70
2019-02-04T01:15:02.205Z,20.80
2019-02-04T01:16:02.210Z,22.60
2019-02-04T01:17:03.809Z,19.90
2019-02-04T01:18:02.686Z,19.10
2019-02-04T01:19:02.563Z,23.10
2019-02-04T01:20:02.353Z,19.20
2019-02-04T01:21:02.172Z,22.60
2019-02-04T01:22:02.147Z,20.60
2019-02-04T01:23:02.155Z,22.20
2019-02-04T01:24:02.149Z,20.90
2019-02-04T01:25:02.118Z,21.30
2019-02-04T01:27:02.116Z,20.50
2019-02-04T01:28:02.103Z,20.30
2019-02-04T01:29:02.102Z,24.30
2019-02-04T01:31:02.075Z,21.30
2019-02-04T01:32:02.087Z,20.60
2019-02-04T01:33:02.269Z,20.10
2019-02-04T01:34:02.047Z,19.00
2019-02-04T01:35:02.244Z,20.80
2019-02-04T01:36:02.035Z,18.80
2019-02-04T01:37:02.032Z,19.40
2019-02-04T01:38:02.534Z,19.40
2019-02-04T01:39:02.015Z,20.00
2019-02-04T01:40:02.205Z,21.40
2019-02-04T01:41:02.000Z,18.50
2019-02-04T01:42:01.986Z,20.10
2019-02-04T01:43:02.007Z,22.40
2019-02-04T01:44:02.194Z,22.70
2019-02-04T01:45:02.386Z,21.20
2019-02-04T01:46:01.967Z,20.70
2019-02-04T01:47:01.975Z,22.00
2019-02-04T01:48:01.960Z,20.70
2019-02-04T01:49:02.333Z,22.90
2019-02-04T01:50:01.942Z,23.00
2019-02-04T01:51:01.910Z,22.20
2019-02-04T01:52:01.910Z,21.80
2019-02-04T01:55:02.101Z,21.30
2019-02-04T01:56:01.885Z,18.30
2019-02-04T01:57:01.877Z,19.90
2019-02-04T01:58:01.862Z,19.90
2019-02-04T01:59:01.886Z,19.90
2019-02-04T02:00:02.057Z,20.70
2019-02-04T02:01:01.849Z,24.40
2019-02-04T02:02:01.837Z,19.90
2019-02-04T02:03:01.835Z,21.60
2019-02-04T02:04:02.232Z,20.10
2019-02-04T02:05:01.808Z,18.20
2019-02-04T02:06:02.015Z,17.90
2019-02-04T02:07:02.000Z,19.20
2019-02-04T02:08:01.792Z,22.20
2019-02-04T02:09:01.976Z,22.10
2019-02-04T02:10:01.999Z,19.60
2019-02-04T02:11:01.763Z,20.80
2019-02-04T02:12:01.769Z,18.50
2019-02-04T02:13:01.758Z,19.80
2019-02-04T02:15:01.758Z,19.70
2019-02-04T02:16:01.926Z,20.30
2019-02-04T02:17:01.749Z,21.00
2019-02-04T02:18:01.713Z,20.80
2019-02-04T02:19:01.911Z,20.10
2019-02-04T02:20:01.700Z,19.90
2019-02-04T02:21:01.894Z,19.00
2019-02-04T02:22:01.869Z,22.10
2019-02-04T02:23:01.659Z,21.10
2019-02-04T02:24:01.963Z,21.00
2019-02-04T02:25:02.463Z,20.80
2019-02-04T02:26:01.628Z,21.60
2019-02-04T02:27:01.836Z,20.60
2019-02-04T02:28:01.637Z,18.20
2019-02-04T02:29:01.631Z,20.10
2019-02-04T02:30:01.865Z,19.10
2019-02-04T02:31:01.825Z,22.20
2019-02-04T02:32:01.635Z,22.00
2019-02-04T02:33:01.989Z,23.00
2019-02-04T02:35:01.575Z,19.40
2019-02-04T02:36:01.575Z,21.70
2019-02-04T02:37:02.115Z,20.00
2019-02-04T02:38:01.566Z,23.30
2019-02-04T02:39:01.778Z,20.90
2019-02-04T02:40:01.734Z,17.90
2019-02-04T02:41:02.028Z,22.20
2019-02-04T02:42:01.525Z,22.60
2019-02-04T02:43:01.528Z,22.10
2019-02-04T02:44:01.486Z,21.20
2019-02-04T02:45:01.702Z,22.30
2019-02-04T02:46:01.494Z,20.70
2019-02-04T02:47:01.879Z,21.30
2019-02-04T02:48:01.876Z,22.50
2019-02-04T02:49:01.671Z,23.60
2019-02-04T02:50:01.457Z,23.70
2019-02-04T02:52:01.447Z,24.30
2019-02-04T02:53:01.415Z,26.10
2019-02-04T02:55:01.624Z,25.50
2019-02-04T02:56:01.439Z,26.00
2019-02-04T02:57:01.394Z,28.00
2019-02-04T02:58:01.377Z,26.10
2019-02-04T02:59:01.464Z,25.50
2019-02-04T03:00:01.447Z,27.00
2019-02-04T03:01:01.362Z,29.50
2019-02-04T03:02:01.359Z,25.90
2019-02-04T03:03:01.574Z,27.50
2019-02-04T03:04:02.059Z,31.00
2019-02-04T03:05:01.334Z,28.10
2019-02-04T03:06:01.336Z,29.20
2019-02-04T03:07:01.526Z,27.80
2019-02-04T03:08:01.301Z,28.90
2019-02-04T03:09:01.305Z,31.10
2019-02-04T03:10:01.305Z,29.20
2019-02-04T03:11:01.297Z,28.60
2019-02-04T03:12:01.691Z,31.20
2019-02-04T03:13:01.477Z,29.60
2019-02-04T03:15:01.268Z,29.80
2019-02-04T03:16:01.452Z,29.40
2019-02-04T03:17:01.263Z,28.80
2019-02-04T03:18:01.237Z,27.20
2019-02-04T03:19:01.243Z,27.80
2019-02-04T03:20:01.625Z,26.50
2019-02-04T03:21:01.231Z,27.10
2019-02-04T03:22:01.408Z,25.20
2019-02-04T03:23:01.402Z,29.50
2019-02-04T03:24:01.168Z,26.10
2019-02-04T03:25:01.166Z,25.50
2019-02-04T03:26:01.366Z,26.40
2019-02-04T03:27:01.159Z,29.00
2019-02-04T03:28:01.159Z,25.50
2019-02-04T03:29:01.137Z,25.80
2019-02-04T03:30:01.145Z,24.30
2019-02-04T03:31:01.135Z,26.20
2019-02-04T03:32:01.137Z,24.50
2019-02-04T03:33:01.537Z,25.10
2019-02-04T03:34:01.125Z,24.50
2019-02-04T03:35:01.089Z,23.90
2019-02-04T03:36:01.090Z,23.70
2019-02-04T03:37:01.399Z,26.30
2019-02-04T03:39:01.084Z,24.10
2019-02-04T03:40:01.272Z,23.80
2019-02-04T03:42:01.452Z,22.30
2019-02-04T03:43:01.358Z,22.60
2019-02-04T03:44:01.038Z,20.40
2019-02-04T03:45:01.022Z,24.00
2019-02-04T03:47:01.006Z,22.20
2019-02-04T03:48:08.210Z,22.50
2019-02-04T03:49:01.005Z,23.00
2019-02-04T03:50:01.000Z,24.90
2019-02-04T03:51:00.963Z,29.00
2019-02-04T03:52:00.990Z,23.50
2019-02-04T03:54:00.951Z,26.00
2019-02-04T03:56:00.967Z,22.50
2019-02-04T03:58:00.998Z,23.40
2019-02-04T03:59:00.908Z,22.00
2019-02-04T04:00:00.938Z,24.40
2019-02-04T04:01:01.102Z,26.80
2019-02-04T04:02:01.071Z,26.00
2019-02-04T04:03:01.070Z,26.10
2019-02-04T04:04:00.892Z,24.90
2019-02-04T04:05:00.870Z,24.90
2019-02-04T04:06:00.864Z,26.00
2019-02-04T04:08:00.876Z,25.40
2019-02-04T04:09:01.036Z,27.30
2019-02-04T04:10:01.038Z,27.50
2019-02-04T04:11:01.027Z,25.60
2019-02-04T04:12:00.791Z,26.90
2019-02-04T04:13:00.815Z,28.80
2019-02-04T04:14:00.980Z,26.30
2019-02-04T04:15:01.024Z,27.10
2019-02-04T04:16:00.981Z,27.50
2019-02-04T04:17:01.273Z,28.50
2019-02-04T04:18:00.764Z,26.90
2019-02-04T04:19:00.753Z,27.90
2019-02-04T04:20:00.768Z,27.50
2019-02-04T04:21:00.749Z,29.80
2019-02-04T04:22:00.752Z,27.60
2019-02-04T04:24:01.104Z,28.80
2019-02-04T04:25:00.959Z,31.00
2019-02-04T04:27:00.689Z,29.00
2019-02-04T04:29:00.677Z,25.90
2019-02-04T04:30:00.877Z,29.00
2019-02-04T04:31:00.884Z,30.00
2019-02-04T04:32:00.872Z,29.70
2019-02-04T04:33:00.665Z,29.10
2019-02-04T04:34:00.630Z,29.30
2019-02-04T04:35:00.662Z,28.10
2019-02-04T04:36:00.827Z,27.90
2019-02-04T04:38:00.601Z,29.30
2019-02-04T04:39:00.803Z,27.30
2019-02-04T04:40:00.599Z,30.40
2019-02-04T04:41:00.567Z,28.10
2019-02-04T04:42:00.557Z,30.60
2019-02-04T04:43:00.548Z,30.30
2019-02-04T04:44:00.553Z,30.30
2019-02-04T04:45:00.755Z,31.70
2019-02-04T04:46:00.527Z,30.20
2019-02-04T04:47:00.534Z,27.50
2019-02-04T04:48:00.549Z,27.20
2019-02-04T04:49:00.525Z,30.20
2019-02-04T04:50:00.511Z,28.30
2019-02-04T04:51:00.709Z,30.60
2019-02-04T04:52:00.515Z,29.20
2019-02-04T04:53:00.690Z,31.60
2019-02-04T04:54:00.490Z,29.30
2019-02-04T04:55:00.452Z,26.00
2019-02-04T04:56:00.885Z,28.60
2019-02-04T04:57:00.452Z,29.20
2019-02-04T04:58:00.455Z,28.40
2019-02-04T04:59:00.441Z,28.00
2019-02-04T05:00:00.634Z,29.70
2019-02-04T05:01:00.817Z,27.10
2019-02-04T05:02:00.402Z,32.90
2019-02-04T05:03:00.415Z,30.60
2019-02-04T05:04:00.398Z,29.60
2019-02-04T05:05:00.406Z,30.00
2019-02-04T05:06:00.792Z,29.30
2019-02-04T05:07:00.735Z,29.30
2019-02-04T05:08:00.388Z,30.30
2019-02-04T05:09:00.393Z,29.90
2019-02-04T05:10:00.364Z,27.30
2019-02-04T05:11:00.365Z,29.10
2019-02-04T05:12:00.345Z,27.40
2019-02-04T05:13:00.352Z,27.80
2019-02-04T05:14:00.356Z,28.40
2019-02-04T05:15:00.508Z,26.40
2019-02-04T05:16:00.301Z,24.80
2019-02-04T05:17:00.328Z,31.60
2019-02-04T05:19:00.380Z,27.00
2019-02-04T05:21:00.273Z,27.30
2019-02-04T05:23:00.252Z,26.90
2019-02-04T05:24:00.434Z,27.30
2019-02-04T05:25:00.242Z,26.60
2019-02-04T05:26:00.450Z,26.10
2019-02-04T05:27:00.419Z,25.50
2019-02-04T05:28:00.223Z,25.70
2019-02-04T05:29:00.205Z,25.80
2019-02-04T05:30:00.222Z,26.70
2019-02-04T05:31:00.211Z,26.40
2019-02-04T05:32:00.175Z,26.80
2019-02-04T05:33:00.179Z,27.10
2019-02-04T05:34:00.187Z,28.40
2019-02-04T05:35:00.326Z,28.50
2019-02-04T05:36:00.361Z,26.90
2019-02-04T05:37:00.175Z,27.20
2019-02-04T05:38:00.338Z,25.90
2019-02-04T05:39:00.344Z,26.90
2019-02-04T05:40:00.210Z,27.70
2019-02-04T05:41:00.345Z,26.60
2019-02-04T05:43:00.113Z,26.20
2019-02-04T05:44:00.313Z,26.20
2019-02-04T05:45:00.409Z,24.40
2019-02-04T05:46:01.690Z,25.30
2019-02-04T05:48:00.072Z,24.60
2019-02-04T05:49:00.373Z,25.80
2019-02-04T05:51:00.075Z,25.90
2019-02-04T05:52:00.040Z,22.60
2019-02-04T05:53:00.038Z,25.60
2019-02-04T05:54:00.032Z,26.00
2019-02-04T05:55:00.331Z,23.40
2019-02-04T05:56:00.015Z,26.60
2019-02-04T05:56:59.998Z,24.60
2019-02-04T05:58:00.296Z,24.60
2019-02-04T05:58:59.992Z,26.00
2019-02-04T05:59:59.973Z,23.30
2019-02-04T06:00:59.952Z,23.90
2019-02-04T06:02:00.274Z,24.70
2019-02-04T06:02:59.956Z,24.70
2019-02-04T06:05:00.326Z,23.90
2019-02-04T06:05:59.938Z,23.30
2019-02-04T06:06:59.921Z,24.30
2019-02-04T06:08:00.425Z,21.10
2019-02-04T06:09:00.143Z,21.30
2019-02-04T06:09:59.918Z,23.10
2019-02-04T06:11:00.121Z,25.20
2019-02-04T06:11:59.902Z,24.00
2019-02-04T06:12:59.884Z,23.80
2019-02-04T06:14:00.267Z,24.90
2019-02-04T06:14:59.860Z,22.90
2019-02-04T06:15:59.841Z,25.40
2019-02-04T06:17:00.043Z,23.10
2019-02-04T06:18:00.043Z,23.60
2019-02-04T06:20:02.804Z,23.00
2019-02-04T06:21:00.019Z,22.60
2019-02-04T06:21:59.800Z,21.50
2019-02-04T06:23:00.003Z,23.10
2019-02-04T06:23:59.815Z,23.90
2019-02-04T06:24:59.983Z,25.00
2019-02-04T06:25:59.979Z,23.70
2019-02-04T06:26:59.762Z,24.40
2019-02-04T06:27:59.970Z,22.30
2019-02-04T06:28:59.744Z,24.40
2019-02-04T06:30:00.334Z,24.20
2019-02-04T06:30:59.742Z,22.10
2019-02-04T06:31:59.734Z,23.10
2019-02-04T06:32:59.925Z,22.30
2019-02-04T06:33:59.718Z,23.20
2019-02-04T06:35:00.238Z,23.30
2019-02-04T06:36:00.003Z,25.00
2019-02-04T06:36:59.682Z,23.20
2019-02-04T06:37:59.882Z,23.60
2019-02-04T06:38:59.676Z,23.50
2019-02-04T06:39:59.872Z,23.00
2019-02-04T06:40:59.856Z,25.70
2019-02-04T06:41:59.856Z,23.40
2019-02-04T06:42:59.856Z,22.90
2019-02-04T06:43:59.634Z,24.80
2019-02-04T06:45:00.367Z,22.00
2019-02-04T06:45:59.613Z,20.50
2019-02-04T06:47:00.046Z,21.60
2019-02-04T06:47:59.609Z,22.10
2019-02-04T06:48:59.797Z,20.80
2019-02-04T06:49:59.615Z,21.50
2019-02-04T06:50:59.594Z,25.80
2019-02-04T06:51:59.604Z,24.00
2019-02-04T06:52:59.769Z,20.30
2019-02-04T06:53:59.567Z,20.50
2019-02-04T06:54:59.553Z,22.70
2019-02-04T06:56:59.934Z,21.40
2019-02-04T06:57:59.742Z,22.10
2019-02-04T06:58:59.741Z,22.70
2019-02-04T06:59:59.520Z,20.80
2019-02-04T07:00:59.714Z,20.70
2019-02-04T07:01:59.536Z,22.40
2019-02-04T07:02:59.490Z,22.10
2019-02-04T07:03:59.474Z,21.10
2019-02-04T07:04:59.669Z,23.10
2019-02-04T07:05:59.677Z,19.70
2019-02-04T07:06:59.468Z,22.40
2019-02-04T07:07:59.771Z,21.40
2019-02-04T07:08:59.436Z,21.80
2019-02-04T07:09:59.731Z,22.20
2019-02-04T07:10:59.444Z,20.10
2019-02-04T07:11:59.423Z,24.60
2019-02-04T07:12:59.415Z,20.80
2019-02-04T07:13:59.416Z,19.90
2019-02-04T07:14:59.389Z,20.80
2019-02-04T07:15:59.409Z,22.80
2019-02-04T07:16:59.679Z,21.90
2019-02-04T07:18:01.897Z,19.30
2019-02-04T07:18:59.395Z,22.90
2019-02-04T07:19:59.557Z,20.40
2019-02-04T07:20:59.568Z,20.60
2019-02-04T07:21:59.557Z,23.90
2019-02-04T07:22:59.960Z,19.80
2019-02-04T07:23:59.355Z,21.60
2019-02-04T07:24:59.335Z,20.10
2019-02-04T07:25:59.735Z,20.80
2019-02-04T07:26:59.313Z,20.90
2019-02-04T07:27:59.498Z,22.40
2019-02-04T07:28:59.302Z,21.50
2019-02-04T07:29:59.280Z,22.60
2019-02-04T07:30:59.270Z,19.60
2019-02-04T07:31:59.467Z,20.00
2019-02-04T07:34:59.280Z,20.90
2019-02-04T07:35:59.828Z,21.70
2019-02-04T07:36:59.231Z,20.80
2019-02-04T07:38:59.222Z,20.90
2019-02-04T07:39:59.407Z,21.30
2019-02-04T07:40:59.213Z,20.50
2019-02-04T07:41:59.170Z,20.50
2019-02-04T07:42:59.183Z,20.80
2019-02-04T07:43:59.173Z,21.70
2019-02-04T07:44:59.150Z,21.20
2019-02-04T07:45:59.349Z,19.90
2019-02-04T07:46:59.455Z,21.80
2019-02-04T07:47:59.346Z,20.50
2019-02-04T07:48:59.122Z,21.50
2019-02-04T07:50:59.110Z,21.00
2019-02-04T07:51:59.317Z,21.90
2019-02-04T07:52:59.830Z,21.60
2019-02-04T07:53:59.301Z,20.50
2019-02-04T07:54:59.094Z,20.60
2019-02-04T07:55:59.074Z,21.10
2019-02-04T07:56:59.077Z,20.00
2019-02-04T07:57:59.500Z,19.70
2019-02-04T07:59:59.056Z,20.30
2019-02-04T08:00:59.257Z,20.50
2019-02-04T08:02:59.048Z,20.70
2019-02-04T08:03:59.035Z,20.70
2019-02-04T08:04:59.144Z,19.70
2019-02-04T08:05:59.041Z,20.70
2019-02-04T08:06:59.214Z,19.80
2019-02-04T08:07:59.196Z,19.50
2019-02-04T08:08:59.000Z,22.40
2019-02-04T08:09:59.187Z,22.40
2019-02-04T08:11:58.969Z,21.70
2019-02-04T08:13:01.639Z,20.00
2019-02-04T08:13:58.968Z,20.20
2019-02-04T08:15:58.926Z,20.10
2019-02-04T08:16:59.318Z,20.70
2019-02-04T08:17:59.625Z,19.80
2019-02-04T08:18:58.920Z,20.00
2019-02-04T08:19:58.888Z,19.60
2019-02-04T08:20:59.101Z,20.70
2019-02-04T08:21:59.083Z,20.40
2019-02-04T08:23:58.877Z,19.70
2019-02-04T08:25:58.845Z,20.50
2019-02-04T08:26:58.852Z,21.00
2019-02-04T08:27:58.862Z,20.10
2019-02-04T08:28:59.349Z,20.40
2019-02-04T08:29:59.329Z,20.20
2019-02-04T08:30:58.818Z,19.80
2019-02-04T08:31:59.014Z,19.80
2019-02-04T08:32:58.821Z,20.10
2019-02-04T08:33:58.783Z,21.20
2019-02-04T08:36:58.768Z,21.20
2019-02-04T08:37:58.983Z,19.40
2019-02-04T08:38:59.202Z,20.80
2019-02-04T08:39:59.281Z,20.00
2019-02-04T08:40:58.943Z,19.30
2019-02-04T08:41:58.736Z,19.30
2019-02-04T08:42:58.732Z,21.40
2019-02-04T08:43:58.713Z,19.50
2019-02-04T08:44:58.713Z,19.00
2019-02-04T08:45:58.912Z,19.10
2019-02-04T08:46:58.696Z,18.50
2019-02-04T08:48:58.668Z,20.30
2019-02-04T08:50:01.306Z,18.90
2019-02-04T08:50:58.856Z,20.40
2019-02-04T08:51:58.866Z,18.80
2019-02-04T08:52:58.653Z,20.20
2019-02-04T08:53:58.842Z,19.60
2019-02-04T08:54:58.651Z,18.80
2019-02-04T08:56:58.828Z,19.60
2019-02-04T08:57:58.818Z,18.50
2019-02-04T08:58:58.914Z,18.30
2019-02-04T09:00:58.777Z,18.90
2019-02-04T09:01:58.604Z,19.00
2019-02-04T09:02:58.773Z,19.40
2019-02-04T09:03:58.571Z,19.30
2019-02-04T09:04:59.083Z,18.30
2019-02-04T09:05:58.754Z,19.20
2019-02-04T09:06:58.585Z,18.30
2019-02-04T09:07:58.945Z,18.30
2019-02-04T09:08:58.516Z,18.30
2019-02-04T09:09:58.518Z,18.40
2019-02-04T09:10:58.723Z,18.80
2019-02-04T09:11:58.721Z,18.10
2019-02-04T09:12:58.515Z,17.70
2019-02-04T09:13:58.706Z,18.70
2019-02-04T09:14:58.713Z,18.60
2019-02-04T09:15:58.505Z,18.00
2019-02-04T09:16:58.460Z,18.00
2019-02-04T09:17:58.485Z,17.80
2019-02-04T09:18:58.766Z,17.20
2019-02-04T09:20:09.433Z,18.10
2019-02-04T09:20:58.657Z,18.50
2019-02-04T09:22:58.847Z,17.80
2019-02-04T09:23:58.731Z,18.20
2019-02-04T09:24:58.432Z,18.80
2019-02-04T09:25:58.408Z,19.00
2019-02-04T09:26:58.603Z,20.80
2019-02-04T09:27:58.605Z,17.90
2019-02-04T09:28:58.588Z,18.80
2019-02-04T09:29:58.397Z,18.40
2019-02-04T09:30:58.986Z,17.80
2019-02-04T09:31:58.368Z,18.00
2019-02-04T09:32:58.361Z,18.20
2019-02-04T09:33:58.863Z,17.80
2019-02-04T09:34:58.325Z,18.20
2019-02-04T09:35:58.342Z,17.20
2019-02-04T09:36:58.325Z,18.10
2019-02-04T09:37:58.337Z,17.90
2019-02-04T09:38:58.320Z,17.10
2019-02-04T09:39:58.301Z,17.60
2019-02-04T09:40:58.310Z,17.50
2019-02-04T09:41:58.693Z,16.90
2019-02-04T09:42:58.695Z,17.60
2019-02-04T09:43:59.001Z,16.70
2019-02-04T09:44:58.274Z,16.60
2019-02-04T09:45:58.270Z,16.80
2019-02-04T09:46:58.673Z,17.30
2019-02-04T09:47:58.453Z,15.50
2019-02-04T09:48:58.238Z,17.60
2019-02-04T09:49:58.234Z,17.60
2019-02-04T09:50:58.249Z,16.00
2019-02-04T09:53:58.184Z,15.90
2019-02-04T09:54:58.187Z,16.60
2019-02-04T09:55:58.186Z,16.10
2019-02-04T09:56:58.186Z,16.90
2019-02-04T09:57:58.380Z,17.10
2019-02-04T09:58:58.171Z,17.10
2019-02-04T09:59:58.412Z,17.10
2019-02-04T10:00:58.146Z,16.50
2019-02-04T10:01:58.143Z,15.90
2019-02-04T10:02:58.147Z,16.70
2019-02-04T10:03:58.128Z,17.10
2019-02-04T10:05:58.118Z,16.70
2019-02-04T10:06:58.122Z,16.60
2019-02-04T10:07:58.107Z,16.10
2019-02-04T10:08:58.287Z,15.00
2019-02-04T10:09:58.995Z,16.20
2019-02-04T10:10:58.284Z,17.30
2019-02-04T10:11:58.083Z,15.40
2019-02-04T10:12:58.063Z,16.00
2019-02-04T10:13:58.474Z,15.20
2019-02-04T10:14:58.256Z,15.60
2019-02-04T10:15:58.071Z,16.90
2019-02-04T10:16:58.442Z,16.10
2019-02-04T10:17:58.258Z,15.70
2019-02-04T10:18:58.053Z,16.40
2019-02-04T10:19:58.026Z,15.70
2019-02-04T10:20:58.033Z,15.40
2019-02-04T10:21:58.038Z,14.30
2019-02-04T10:22:58.035Z,16.40
2019-02-04T10:23:58.210Z,15.90
2019-02-04T10:24:58.400Z,17.20
2019-02-04T10:25:57.999Z,15.50
2019-02-04T10:26:57.962Z,14.80
2019-02-04T10:27:58.180Z,15.20
2019-02-04T10:28:57.964Z,14.40
2019-02-04T10:29:58.030Z,14.70
2019-02-04T10:30:57.956Z,14.00
2019-02-04T10:32:58.174Z,14.30
2019-02-04T10:33:58.126Z,13.90
2019-02-04T10:34:58.107Z,14.00
2019-02-04T10:35:57.952Z,13.60
2019-02-04T10:36:58.100Z,13.90
2019-02-04T10:37:58.648Z,14.30
2019-02-04T10:38:57.880Z,14.50
2019-02-04T10:39:58.083Z,13.70
2019-02-04T10:40:57.862Z,13.10
2019-02-04T10:41:57.866Z,15.00
2019-02-04T10:42:57.849Z,14.50
2019-02-04T10:43:57.878Z,13.90
2019-02-04T10:44:58.167Z,13.40
2019-02-04T10:45:58.237Z,13.90
2019-02-04T10:46:57.874Z,14.10
2019-02-04T10:47:57.845Z,14.40
2019-02-04T10:48:57.863Z,16.30
2019-02-04T10:50:58.000Z,14.50
2019-02-04T10:51:58.006Z,14.00
2019-02-04T10:52:58.423Z,15.40
2019-02-04T10:53:57.792Z,13.40
2019-02-04T10:54:57.780Z,12.80
2019-02-04T10:55:57.759Z,15.30
2019-02-04T10:56:58.345Z,14.10
2019-02-04T10:57:57.819Z,14.50
2019-02-04T10:58:57.767Z,14.10
2019-02-04T10:59:57.759Z,13.90
2019-02-04T11:00:57.726Z,14.50
2019-02-04T11:02:57.993Z,14.70
2019-02-04T11:03:58.068Z,13.00
2019-02-04T11:04:57.700Z,13.30
2019-02-04T11:05:57.706Z,13.10
2019-02-04T11:06:57.737Z,13.40
2019-02-04T11:07:57.720Z,12.70
2019-02-04T11:08:57.905Z,13.10
2019-02-04T11:09:57.648Z,11.70
2019-02-04T11:10:57.700Z,12.60
2019-02-04T11:11:57.676Z,15.20
2019-02-04T11:12:57.654Z,15.50
2019-02-04T11:13:57.979Z,14.00
2019-02-04T11:14:57.835Z,13.10
2019-02-04T11:15:57.633Z,12.70
2019-02-04T11:16:57.632Z,12.60
2019-02-04T11:19:57.616Z,12.20
2019-02-04T11:20:58.521Z,13.00
2019-02-04T11:21:57.798Z,14.50
2019-02-04T11:22:57.661Z,12.90
2019-02-04T11:23:57.579Z,11.80
2019-02-04T11:24:57.583Z,12.10
2019-02-04T11:25:57.545Z,13.50
2019-02-04T11:26:57.555Z,13.30
2019-02-04T11:27:57.733Z,11.80
2019-02-04T11:28:57.744Z,11.80
2019-02-04T11:29:57.879Z,12.70
2019-02-04T11:30:57.574Z,12.10
2019-02-04T11:33:57.549Z,11.70
2019-02-04T11:35:57.933Z,11.00
2019-02-04T11:36:57.504Z,11.60
2019-02-04T11:37:57.499Z,11.80
2019-02-04T11:38:57.515Z,12.00
2019-02-04T11:39:57.715Z,13.00
2019-02-04T11:40:57.466Z,12.20
2019-02-04T11:44:58.032Z,10.60
2019-02-04T11:45:57.486Z,11.60
2019-02-04T11:46:57.447Z,10.50
2019-02-04T11:47:57.699Z,11.30
2019-02-04T11:48:57.429Z,10.60
2019-02-04T11:49:57.422Z,12.90
2019-02-04T11:51:08.924Z,11.90
2019-02-04T11:51:57.406Z,10.90
2019-02-04T11:52:57.404Z,10.60
2019-02-04T11:54:57.588Z,11.00
2019-02-04T11:55:57.365Z,9.70
2019-02-04T11:56:57.972Z,13.80
2019-02-04T11:57:57.353Z,10.80
2019-02-04T11:58:57.345Z,9.60
2019-02-04T11:59:57.670Z,9.80
2019-02-04T12:00:57.320Z,10.50
2019-02-04T12:02:57.315Z,10.90
2019-02-04T12:04:57.307Z,9.70
2019-02-04T12:05:57.494Z,11.60
2019-02-04T12:06:57.310Z,12.00
2019-02-04T12:07:58.034Z,10.10
2019-02-04T12:09:57.479Z,8.70
2019-02-04T12:10:57.584Z,9.10
2019-02-04T12:11:57.269Z,9.30
2019-02-04T12:13:57.275Z,8.60
2019-02-04T12:14:57.663Z,10.80
2019-02-04T12:15:57.241Z,9.40
2019-02-04T12:16:59.149Z,9.40
2019-02-04T12:17:57.436Z,13.20
2019-02-04T12:18:57.246Z,8.30
2019-02-04T12:19:57.522Z,9.20
2019-02-04T12:20:57.229Z,9.70
2019-02-04T12:21:57.513Z,10.40
2019-02-04T12:25:57.218Z,9.90
2019-02-04T12:26:57.704Z,8.70
2019-02-04T12:27:57.177Z,11.70
2019-02-04T12:28:57.878Z,8.50
2019-02-04T12:29:57.161Z,9.70
2019-02-04T12:30:57.162Z,8.10
2019-02-04T12:31:57.562Z,9.10
2019-02-04T12:32:57.351Z,8.50
2019-02-04T12:33:57.124Z,7.30
2019-02-04T12:35:57.112Z,8.10
2019-02-04T12:36:57.132Z,7.90
2019-02-04T12:37:57.121Z,8.30
2019-02-04T12:38:57.129Z,8.00
2019-02-04T12:39:57.303Z,8.10
2019-02-04T12:40:57.295Z,8.70
2019-02-04T12:41:57.121Z,8.70
2019-02-04T12:43:57.975Z,8.00
2019-02-04T12:44:57.286Z,9.10
2019-02-04T12:45:57.083Z,9.40
2019-02-04T12:46:57.060Z,8.30
2019-02-04T12:48:00.526Z,10.70
2019-02-04T12:48:57.238Z,9.40
2019-02-04T12:49:57.045Z,8.10
2019-02-04T12:50:57.552Z,8.10
2019-02-04T12:51:57.235Z,8.30
2019-02-04T12:52:57.215Z,8.80
2019-02-04T12:53:57.026Z,8.20
2019-02-04T12:54:57.013Z,8.40
2019-02-04T12:55:57.028Z,6.70
2019-02-04T12:56:57.008Z,7.60
2019-02-04T12:57:57.012Z,6.60
2019-02-04T12:58:56.983Z,8.60
2019-02-04T12:59:56.988Z,7.40
2019-02-04T13:00:57.305Z,6.70
2019-02-04T13:01:57.184Z,6.90
2019-02-04T13:02:56.957Z,7.50
2019-02-04T13:03:57.162Z,7.50
2019-02-04T13:05:56.987Z,6.50
2019-02-04T13:06:57.349Z,6.30
2019-02-04T13:07:57.157Z,5.70
2019-02-04T13:08:56.942Z,7.60
2019-02-04T13:09:57.343Z,7.50
2019-02-04T13:12:56.913Z,6.70
2019-02-04T13:13:56.918Z,5.40
2019-02-04T13:14:56.918Z,5.30
2019-02-04T13:15:56.893Z,5.30
2019-02-04T13:16:56.907Z,5.10
2019-02-04T13:17:56.899Z,6.30
2019-02-04T13:18:57.081Z,5.30
2019-02-04T13:19:56.895Z,4.50
2019-02-04T13:20:56.879Z,4.70
2019-02-04T13:21:57.084Z,5.30
2019-02-04T13:22:56.863Z,5.00
2019-02-04T13:23:57.061Z,5.00
2019-02-04T13:24:57.248Z,4.60
2019-02-04T13:25:56.848Z,4.90
2019-02-04T13:26:56.943Z,6.00
2019-02-04T13:27:56.856Z,5.00
2019-02-04T13:28:57.033Z,4.80
2019-02-04T13:29:56.814Z,4.80
2019-02-04T13:30:56.806Z,4.20
2019-02-04T13:31:57.049Z,4.10
2019-02-04T13:32:56.997Z,4.30
2019-02-04T13:33:56.784Z,4.50
2019-02-04T13:34:56.783Z,5.60
2019-02-04T13:35:57.304Z,5.10
2019-02-04T13:36:57.291Z,4.70
2019-02-04T13:37:56.786Z,4.30
2019-02-04T13:38:56.782Z,5.10
2019-02-04T13:39:56.753Z,4.90
2019-02-04T13:41:07.578Z,4.60
2019-02-04T13:41:56.973Z,4.70
2019-02-04T13:42:56.752Z,5.30
2019-02-04T13:43:57.054Z,4.90
2019-02-04T13:44:57.461Z,4.30
2019-02-04T13:45:56.741Z,4.50
2019-02-04T13:46:57.335Z,4.30
2019-02-04T13:47:56.735Z,4.90
2019-02-04T13:48:56.714Z,5.30
2019-02-04T13:49:56.717Z,5.40
2019-02-04T13:50:56.907Z,4.70
2019-02-04T13:51:57.936Z,5.10
2019-02-04T13:52:56.885Z,5.40
2019-02-04T13:53:57.321Z,5.00
2019-02-04T13:55:56.669Z,5.20
2019-02-04T13:56:56.692Z,4.80
2019-02-04T13:58:56.899Z,5.30
2019-02-04T13:59:56.679Z,5.40
2019-02-04T14:00:56.650Z,4.90
2019-02-04T14:01:56.713Z,5.40
2019-02-04T14:02:59.330Z,4.90
2019-02-04T14:03:57.146Z,5.50
2019-02-04T14:04:56.661Z,4.40
2019-02-04T14:05:56.767Z,4.90
2019-02-04T14:06:56.645Z,7.90
2019-02-04T14:07:56.641Z,5.20
2019-02-04T14:08:57.220Z,4.60
2019-02-04T14:09:59.101Z,5.00
2019-02-04T14:10:56.637Z,5.90
2019-02-04T14:11:56.611Z,5.20
2019-02-04T14:12:56.602Z,5.80
2019-02-04T14:14:56.617Z,4.50
2019-02-04T14:15:56.582Z,4.70